createdAt,value
2017-04-15T00:00:28.140Z,97.6
2017-04-15T00:01:37.360Z,97.22
2017-04-15T00:02:46.571Z,97.12
2017-04-15T00:03:56.110Z,97.31
2017-04-15T00:05:05.376Z,97.41
2017-04-15T00:06:14.591Z,97.31
2017-04-15T00:07:23.826Z,96.84
2017-04-15T00:08:33.464Z,96.74
2017-04-15T00:09:42.686Z,97.31
2017-04-15T00:10:51.629Z,97.22
2017-04-15T00:12:00.841Z,97.22
2017-04-15T00:13:10.089Z,97.41
2017-04-15T00:14:19.639Z,97.5
2017-04-15T00:15:29.179Z,97.41
2017-04-15T00:16:38.593Z,97.31
2017-04-15T00:17:47.813Z,97.6
2017-04-15T00:18:57.028Z,97.69
2017-04-15T00:20:06.244Z,96.84
2017-04-15T00:21:15.132Z,97.6
2017-04-15T00:22:24.496Z,97.12
2017-04-15T00:23:33.713Z,97.12
2017-04-15T00:24:42.602Z,96.65
2017-04-15T00:25:51.812Z,96.93
2017-04-15T00:27:00.696Z,97.12
2017-04-15T00:28:10.055Z,97.22
2017-04-15T00:29:18.948Z,96.36
2017-04-15T00:30:28.166Z,96.45
2017-04-15T00:31:37.381Z,96.45
2017-04-15T00:32:46.921Z,95.98
2017-04-15T00:33:56.717Z,95.6
2017-04-15T00:35:06.578Z,95.51
2017-04-15T00:36:15.790Z,95.98
2017-04-15T00:37:25.001Z,95.79
2017-04-15T00:38:33.894Z,94.93
2017-04-15T00:39:43.435Z,94.84
2017-04-15T00:40:52.645Z,94.93
2017-04-15T00:42:01.928Z,95.22
2017-04-15T00:43:11.870Z,94.74
2017-04-15T00:44:21.378Z,95.12
2017-04-15T00:45:30.841Z,94.65
2017-04-15T00:46:40.053Z,94.93
2017-04-15T00:47:49.264Z,94.56
2017-04-15T00:48:59.125Z,94.46
2017-04-15T00:50:08.663Z,94.84
2017-04-15T00:51:17.665Z,94.27
2017-04-15T00:52:26.557Z,94.37
2017-04-15T00:53:36.100Z,93.99
2017-04-15T00:54:45.311Z,94.18
2017-04-15T00:55:54.841Z,94.18
2017-04-15T00:57:04.045Z,93.89
2017-04-15T00:58:12.926Z,93.51
2017-04-15T00:59:22.132Z,93.79
2017-04-15T01:00:31.662Z,93.89
2017-04-15T01:01:40.873Z,94.27
2017-04-15T01:02:50.232Z,93.7
2017-04-15T01:04:00.094Z,93.32
2017-04-15T01:05:08.987Z,94.32
2017-04-15T01:06:18.200Z,93.7
2017-04-15T01:07:27.412Z,93.13
2017-04-15T01:08:37.003Z,93.18
2017-04-15T01:09:46.538Z,93.04
2017-04-15T01:10:56.071Z,93.41
2017-04-15T01:12:05.290Z,92.7
2017-04-15T01:13:14.176Z,92.89
2017-04-15T01:14:23.546Z,92.99
2017-04-15T01:15:33.077Z,93.18
2017-04-15T01:16:42.286Z,92.99
2017-04-15T01:17:51.171Z,93.08
2017-04-15T01:19:00.057Z,93.18
2017-04-15T01:20:09.693Z,93.04
2017-04-15T01:21:19.549Z,92.99
2017-04-15T01:22:28.762Z,92.99
2017-04-15T01:23:37.647Z,92.89
2017-04-15T01:24:47.184Z,93.46
2017-04-15T01:25:56.544Z,93.04
2017-04-15T01:27:05.432Z,93.08
2017-04-15T01:28:14.597Z,93.46
2017-04-15T01:29:24.459Z,93.18
2017-04-15T01:30:33.669Z,92.8
2017-04-15T01:31:42.869Z,92.61
2017-04-15T01:32:52.073Z,93.13
2017-04-15T01:34:01.285Z,92.7
2017-04-15T01:35:10.495Z,92.8
2017-04-15T01:36:19.379Z,92.8
2017-04-15T01:37:28.411Z,93.27
2017-04-15T01:38:37.623Z,92.89
2017-04-15T01:39:47.485Z,93.37
2017-04-15T01:40:57.017Z,93.37
2017-04-15T01:42:06.871Z,93.18
2017-04-15T01:43:16.454Z,93.55
2017-04-15T01:44:25.339Z,93.65
2017-04-15T01:45:34.877Z,94.13
2017-04-15T01:46:43.759Z,93.27
2017-04-15T01:47:53.291Z,93.37
2017-04-15T01:49:03.578Z,93.27
2017-04-15T01:50:13.112Z,92.8
2017-04-15T01:51:22.643Z,93.55
2017-04-15T01:52:31.528Z,93.75
2017-04-15T01:53:40.733Z,94.32
2017-04-15T01:54:51.066Z,94.79
2017-04-15T01:56:00.928Z,94.79
2017-04-15T01:57:09.810Z,94.79
2017-04-15T01:58:19.731Z,94.7
2017-04-15T01:59:28.617Z,95.56
2017-04-15T02:00:37.875Z,96.03
2017-04-15T02:01:47.406Z,96.41
2017-04-15T02:02:56.610Z,97.17
2017-04-15T02:04:06.141Z,97.36
2017-04-15T02:05:16.087Z,97.17
2017-04-15T02:06:25.125Z,98.12
2017-04-15T02:07:34.335Z,98.6
2017-04-15T02:08:43.873Z,99.26
2017-04-15T02:09:53.411Z,99.88
2017-04-15T02:11:02.946Z,99.88
2017-04-15T02:12:12.624Z,99.99
2017-04-15T02:13:21.838Z,99.99
2017-04-15T02:14:31.045Z,99.99
2017-04-15T02:15:40.579Z,99.99
2017-04-15T02:16:49.461Z,99.99
2017-04-15T02:17:58.408Z,99.99
2017-04-15T02:19:07.947Z,99.99
2017-04-15T02:20:17.480Z,99.99
2017-04-15T02:21:26.689Z,99.99
2017-04-15T02:22:35.574Z,99.99
2017-04-15T02:23:44.942Z,99.99
2017-04-15T02:24:54.159Z,99.99
2017-04-15T02:26:03.039Z,99.99
2017-04-15T02:27:11.918Z,99.99
2017-04-15T02:28:21.124Z,99.99
2017-04-15T02:29:30.816Z,99.99
2017-04-15T02:30:40.023Z,99.99
2017-04-15T02:31:49.877Z,99.99
2017-04-15T02:32:58.770Z,99.99
2017-04-15T02:34:07.653Z,99.99
2017-04-15T02:35:17.331Z,99.99
2017-04-15T02:36:26.860Z,99.99
2017-04-15T02:37:36.070Z,99.99
2017-04-15T02:38:45.280Z,99.99
2017-04-15T02:39:54.162Z,99.99
2017-04-15T02:41:03.866Z,99.99
2017-04-15T02:42:13.398Z,99.99
2017-04-15T02:43:22.441Z,99.99
2017-04-15T02:44:31.978Z,99.99
2017-04-15T02:45:41.182Z,99.99
2017-04-15T02:46:50.540Z,99.99
2017-04-15T02:47:59.936Z,99.99
2017-04-15T02:49:09.819Z,99.99
2017-04-15T02:50:19.683Z,99.99
2017-04-15T02:51:28.562Z,99.99
2017-04-15T02:52:38.026Z,99.99
2017-04-15T02:53:47.236Z,99.99
2017-04-15T02:54:56.768Z,99.99
2017-04-15T02:56:06.309Z,99.99
2017-04-15T02:57:15.193Z,99.99
2017-04-15T02:58:24.558Z,99.99
2017-04-15T02:59:34.412Z,99.99
2017-04-15T03:00:43.623Z,99.99
2017-04-15T03:01:52.826Z,99.99
2017-04-15T03:03:02.361Z,99.99
2017-04-15T03:04:11.566Z,99.99
2017-04-15T03:05:20.771Z,99.99
2017-04-15T03:06:29.654Z,99.99
2017-04-15T03:07:38.861Z,99.99
2017-04-15T03:08:48.733Z,99.99
2017-04-15T03:09:58.365Z,99.99
2017-04-15T03:11:07.573Z,99.99
2017-04-15T03:12:17.109Z,99.99
2017-04-15T03:13:25.990Z,99.99
2017-04-15T03:14:35.526Z,99.99
2017-04-15T03:15:45.046Z,99.99
2017-04-15T03:16:54.578Z,99.99
2017-04-15T03:18:04.117Z,99.99
2017-04-15T03:19:13.655Z,99.99
2017-04-15T03:20:23.843Z,99.99
2017-04-15T03:21:33.127Z,99.99
2017-04-15T03:22:42.013Z,99.99
2017-04-15T03:23:50.896Z,99.99
2017-04-15T03:25:00.750Z,99.99
2017-04-15T03:26:09.955Z,99.99
2017-04-15T03:27:18.939Z,99.99
2017-04-15T03:28:27.825Z,99.99
2017-04-15T03:29:37.703Z,99.99
2017-04-15T03:30:46.588Z,99.99
2017-04-15T03:31:55.791Z,99.99
2017-04-15T03:33:05.804Z,99.99
2017-04-15T03:34:15.229Z,99.99
2017-04-15T03:35:24.962Z,99.99
2017-04-15T03:36:34.166Z,99.99
2017-04-15T03:37:43.372Z,99.99
2017-04-15T03:38:53.254Z,99.99
2017-04-15T03:40:02.461Z,99.99
2017-04-15T03:41:11.988Z,99.99
2017-04-15T03:42:21.195Z,99.99
2017-04-15T03:43:30.401Z,99.99
2017-04-15T03:44:39.863Z,99.99
2017-04-15T03:45:49.395Z,99.99
2017-04-15T03:46:58.613Z,99.99
2017-04-15T03:48:08.144Z,99.99
2017-04-15T03:49:17.355Z,99.99
2017-04-15T03:50:27.212Z,99.99
2017-04-15T03:51:36.105Z,99.99
2017-04-15T03:52:45.640Z,99.99
2017-04-15T03:53:55.173Z,99.99
2017-04-15T03:55:04.057Z,99.99
2017-04-15T03:56:13.760Z,99.99
2017-04-15T03:57:22.649Z,99.99
2017-04-15T03:58:31.855Z,99.99
2017-04-15T03:59:40.738Z,99.99
2017-04-15T04:00:50.287Z,99.99
2017-04-15T04:01:59.424Z,99.99
2017-04-15T04:03:08.636Z,99.99
2017-04-15T04:04:17.838Z,99.99
2017-04-15T04:05:26.721Z,99.99
2017-04-15T04:06:35.604Z,99.99
2017-04-15T04:07:44.633Z,99.99
2017-04-15T04:08:53.839Z,99.99
2017-04-15T04:10:03.372Z,99.99
2017-04-15T04:11:12.252Z,99.99
2017-04-15T04:12:21.458Z,99.99
2017-04-15T04:13:30.973Z,99.99
2017-04-15T04:14:40.509Z,99.99
2017-04-15T04:15:49.721Z,99.99
2017-04-15T04:16:58.602Z,99.99
2017-04-15T04:18:07.485Z,99.99
2017-04-15T04:19:16.996Z,99.99
2017-04-15T04:20:26.022Z,99.99
2017-04-15T04:21:34.911Z,99.99
2017-04-15T04:22:44.175Z,99.99
2017-04-15T04:23:53.378Z,99.99
2017-04-15T04:25:03.186Z,99.99
2017-04-15T04:26:12.572Z,99.99
2017-04-15T04:27:21.782Z,99.99
2017-04-15T04:28:30.674Z,99.99
2017-04-15T04:29:40.865Z,99.99
2017-04-15T04:30:50.177Z,99.99
2017-04-15T04:31:59.057Z,99.99
2017-04-15T04:33:08.928Z,99.99
2017-04-15T04:34:18.146Z,99.99
2017-04-15T04:35:28.005Z,99.99
2017-04-15T04:36:37.146Z,99.99
2017-04-15T04:37:46.032Z,99.99
2017-04-15T04:38:54.927Z,99.99
2017-04-15T04:40:04.783Z,99.99
2017-04-15T04:41:13.993Z,99.99
2017-04-15T04:42:23.202Z,99.99
2017-04-15T04:43:32.411Z,99.99
2017-04-15T04:44:41.624Z,99.99
2017-04-15T04:45:51.158Z,99.99
2017-04-15T04:47:00.050Z,99.99
2017-04-15T04:48:09.503Z,99.99
2017-04-15T04:49:19.034Z,99.99
2017-04-15T04:50:28.566Z,99.99
2017-04-15T04:51:37.452Z,99.99
2017-04-15T04:52:46.338Z,99.99
2017-04-15T04:53:55.561Z,99.99
2017-04-15T04:55:05.093Z,99.99
2017-04-15T04:56:14.298Z,99.99
2017-04-15T04:57:23.178Z,99.99
2017-04-15T04:58:32.722Z,99.99
2017-04-15T04:59:42.361Z,99.99
2017-04-15T05:00:51.566Z,99.99
2017-04-15T05:02:00.451Z,99.99
2017-04-15T05:03:09.336Z,99.99
2017-04-15T05:04:18.883Z,99.99
2017-04-15T05:05:29.041Z,99.99
2017-04-15T05:06:38.254Z,99.99
2017-04-15T05:07:47.463Z,99.99
2017-04-15T05:08:56.671Z,99.99
2017-04-15T05:10:06.340Z,99.99
2017-04-15T05:11:15.982Z,99.99
2017-04-15T05:12:25.313Z,99.99
2017-04-15T05:13:34.195Z,99.99
2017-04-15T05:14:44.114Z,99.99
2017-04-15T05:15:53.002Z,99.99
2017-04-15T05:17:02.445Z,99.99
2017-04-15T05:18:11.658Z,99.99
2017-04-15T05:19:20.880Z,99.99
2017-04-15T05:20:30.410Z,99.99
2017-04-15T05:21:39.305Z,99.99
2017-04-15T05:22:48.236Z,99.99
2017-04-15T05:23:57.768Z,99.99
2017-04-15T05:25:07.953Z,99.99
2017-04-15T05:26:17.480Z,99.99
2017-04-15T05:27:26.365Z,99.99
2017-04-15T05:28:35.725Z,99.99
2017-04-15T05:29:45.261Z,99.99
2017-04-15T05:30:54.799Z,99.99
2017-04-15T05:32:03.701Z,99.99
2017-04-15T05:33:13.563Z,99.99
2017-04-15T05:34:22.922Z,99.99
2017-04-15T05:35:33.105Z,99.99
2017-04-15T05:36:42.638Z,99.99
2017-04-15T05:37:52.170Z,99.99
2017-04-15T05:39:01.703Z,99.99
2017-04-15T05:40:10.842Z,99.99
2017-04-15T05:41:20.044Z,99.99
2017-04-15T05:42:28.922Z,99.99
2017-04-15T05:43:37.812Z,99.99
2017-04-15T05:44:47.358Z,99.99
2017-04-15T05:45:56.713Z,99.99
2017-04-15T05:47:05.593Z,99.99
2017-04-15T05:48:14.481Z,99.99
2017-04-15T05:49:23.687Z,99.99
2017-04-15T05:50:32.900Z,99.99
2017-04-15T05:51:41.830Z,99.99
2017-04-15T05:52:50.748Z,99.99
2017-04-15T05:53:59.952Z,99.99
2017-04-15T05:55:09.493Z,99.99
2017-04-15T05:56:18.703Z,99.99
2017-04-15T05:57:28.382Z,99.99
2017-04-15T05:58:37.915Z,99.99
2017-04-15T05:59:47.775Z,99.99
2017-04-15T06:00:57.308Z,99.99
2017-04-15T06:02:06.196Z,99.99
2017-04-15T06:03:15.828Z,99.99
2017-04-15T06:04:25.034Z,99.99
2017-04-15T06:05:33.930Z,99.99
2017-04-15T06:06:43.139Z,99.99
2017-04-15T06:07:52.670Z,99.99
2017-04-15T06:09:02.040Z,99.99
2017-04-15T06:10:11.579Z,99.99
2017-04-15T06:11:20.787Z,99.99
2017-04-15T06:12:29.676Z,99.99
2017-04-15T06:13:38.886Z,99.99
2017-04-15T06:14:49.219Z,99.99
2017-04-15T06:15:58.424Z,99.99
2017-04-15T06:17:07.630Z,99.99
2017-04-15T06:18:16.522Z,99.99
2017-04-15T06:19:25.740Z,99.99
2017-04-15T06:20:35.595Z,99.99
2017-04-15T06:21:44.806Z,99.99
2017-04-15T06:22:53.693Z,99.99
2017-04-15T06:24:02.905Z,99.99
2017-04-15T06:25:11.791Z,99.99
2017-04-15T06:26:20.823Z,99.99
2017-04-15T06:27:30.033Z,99.99
2017-04-15T06:28:39.570Z,99.99
2017-04-15T06:29:49.108Z,99.99
2017-04-15T06:30:58.652Z,99.99
2017-04-15T06:32:07.543Z,99.99
2017-04-15T06:33:16.751Z,99.99
2017-04-15T06:34:26.292Z,99.99
2017-04-15T06:35:35.830Z,99.99
2017-04-15T06:36:45.038Z,99.99
2017-04-15T06:37:54.220Z,99.99
2017-04-15T06:39:03.749Z,99.99
2017-04-15T06:40:12.959Z,99.99
2017-04-15T06:41:22.171Z,99.99
2017-04-15T06:42:31.052Z,99.99
2017-04-15T06:43:40.363Z,99.99
2017-04-15T06:44:49.574Z,99.99
2017-04-15T06:45:58.784Z,99.99
2017-04-15T06:47:07.987Z,99.99
2017-04-15T06:48:17.215Z,99.99
2017-04-15T06:49:26.836Z,99.99
2017-04-15T06:50:36.055Z,99.99
2017-04-15T06:51:45.529Z,99.99
2017-04-15T06:52:54.412Z,99.99
2017-04-15T06:54:03.314Z,99.99
2017-04-15T06:55:12.899Z,99.99
2017-04-15T06:56:22.146Z,99.99
2017-04-15T06:57:31.684Z,99.99
2017-04-15T06:58:40.766Z,99.99
2017-04-15T06:59:50.634Z,99.99
2017-04-15T07:01:00.250Z,99.99
2017-04-15T07:02:09.540Z,99.99
2017-04-15T07:03:18.690Z,99.99
2017-04-15T07:04:27.989Z,99.99
2017-04-15T07:05:37.817Z,99.99
2017-04-15T07:06:47.321Z,99.99
2017-04-15T07:07:56.529Z,99.99
2017-04-15T07:09:06.206Z,99.99
2017-04-15T07:10:16.071Z,99.99
2017-04-15T07:11:24.952Z,99.99
2017-04-15T07:12:34.273Z,99.99
2017-04-15T07:13:43.811Z,99.99
2017-04-15T07:14:54.012Z,99.99
2017-04-15T07:16:03.232Z,99.99
2017-04-15T07:17:12.445Z,99.99
2017-04-15T07:18:21.758Z,99.99
2017-04-15T07:19:30.966Z,99.99
2017-04-15T07:20:40.181Z,99.99
2017-04-15T07:21:49.396Z,99.99
2017-04-15T07:22:58.603Z,99.99
2017-04-15T07:24:08.067Z,99.99
2017-04-15T07:25:17.598Z,99.99
2017-04-15T07:26:26.803Z,99.99
2017-04-15T07:27:36.338Z,99.99
2017-04-15T07:28:45.558Z,99.99
2017-04-15T07:29:55.572Z,99.99
2017-04-15T07:31:04.776Z,99.99
2017-04-15T07:32:13.982Z,99.99
2017-04-15T07:33:23.189Z,99.99
2017-04-15T07:34:33.050Z,99.99
2017-04-15T07:35:42.791Z,99.99
2017-04-15T07:36:52.000Z,99.99
2017-04-15T07:38:00.885Z,99.99
2017-04-15T07:39:10.101Z,99.99
2017-04-15T07:40:19.643Z,99.99
2017-04-15T07:41:28.688Z,99.99
2017-04-15T07:42:37.586Z,99.99
2017-04-15T07:43:47.775Z,99.99
2017-04-15T07:44:56.981Z,99.99
2017-04-15T07:46:06.514Z,99.99
2017-04-15T07:47:16.097Z,99.99
2017-04-15T07:48:25.310Z,99.99
2017-04-15T07:49:35.179Z,99.99
2017-04-15T07:50:44.388Z,99.99
2017-04-15T07:51:53.593Z,99.99
2017-04-15T07:53:02.955Z,99.99
2017-04-15T07:54:12.161Z,99.99
2017-04-15T07:55:21.369Z,99.99
2017-04-15T07:56:30.257Z,99.99
2017-04-15T07:57:39.148Z,99.99
2017-04-15T07:58:49.176Z,99.99
2017-04-15T07:59:58.709Z,99.99
2017-04-15T08:01:07.925Z,99.99
2017-04-15T08:02:17.135Z,99.99
2017-04-15T08:03:26.017Z,99.99
2017-04-15T08:04:35.054Z,99.99
2017-04-15T08:05:44.938Z,99.99
2017-04-15T08:06:54.146Z,99.99
2017-04-15T08:08:03.678Z,99.99
2017-04-15T08:09:12.886Z,99.99
2017-04-15T08:10:22.895Z,99.99
2017-04-15T08:11:31.777Z,99.99
2017-04-15T08:12:40.664Z,99.99
2017-04-15T08:13:49.870Z,99.99
2017-04-15T08:14:59.076Z,99.99
2017-04-15T08:16:08.343Z,99.99
2017-04-15T08:17:17.226Z,99.99
2017-04-15T08:18:26.113Z,99.99
2017-04-15T08:19:34.995Z,99.99
2017-04-15T08:20:44.529Z,99.99
2017-04-15T08:21:54.195Z,99.99
2017-04-15T08:23:03.280Z,99.99
2017-04-15T08:24:12.908Z,99.99
2017-04-15T08:25:22.304Z,99.99
2017-04-15T08:26:31.525Z,99.99
2017-04-15T08:27:40.610Z,99.99
2017-04-15T08:28:50.641Z,99.99
2017-04-15T08:30:00.407Z,99.99
2017-04-15T08:31:09.290Z,99.99
2017-04-15T08:32:18.306Z,99.99
2017-04-15T08:33:27.683Z,99.99
2017-04-15T08:34:37.888Z,99.99
2017-04-15T08:35:47.426Z,99.99
2017-04-15T08:36:56.310Z,99.99
2017-04-15T08:38:05.191Z,99.99
2017-04-15T08:39:14.175Z,99.99
2017-04-15T08:40:23.705Z,99.99
2017-04-15T08:41:32.916Z,99.99
2017-04-15T08:42:42.130Z,99.99
2017-04-15T08:43:51.351Z,99.99
2017-04-15T08:45:00.634Z,99.99
2017-04-15T08:46:09.525Z,99.99
2017-04-15T08:47:18.413Z,99.99
2017-04-15T08:48:27.294Z,99.99
2017-04-15T08:49:36.827Z,99.99
2017-04-15T08:50:46.706Z,99.99
2017-04-15T08:51:55.588Z,99.99
2017-04-15T08:53:04.474Z,99.99
2017-04-15T08:54:14.017Z,99.99
2017-04-15T08:55:23.551Z,99.99
2017-04-15T08:56:32.481Z,99.99
2017-04-15T08:57:41.687Z,99.99
2017-04-15T08:58:51.220Z,99.99
2017-04-15T09:00:00.432Z,99.99
2017-04-15T09:01:09.317Z,99.99
2017-04-15T09:02:18.453Z,99.99
2017-04-15T09:03:27.665Z,99.99
2017-04-15T09:04:37.204Z,99.99
2017-04-15T09:05:46.415Z,99.99
2017-04-15T09:06:55.626Z,95.98
2017-04-15T09:08:04.989Z,93.03
2017-04-15T09:09:13.874Z,95.03
2017-04-15T09:10:23.745Z,91.99
2017-04-15T09:11:32.959Z,91.89
2017-04-15T09:12:42.170Z,93.51
2017-04-15T09:13:51.536Z,92.36
2017-04-15T09:15:00.423Z,93.32
2017-04-15T09:16:09.957Z,92.46
2017-04-15T09:17:19.489Z,89.22
2017-04-15T09:18:29.669Z,85.99
2017-04-15T09:19:39.532Z,86.36
2017-04-15T09:20:49.067Z,86.75
2017-04-15T09:21:57.954Z,88.79
2017-04-15T09:23:06.839Z,88.75
2017-04-15T09:24:16.057Z,90.17
2017-04-15T09:25:25.910Z,89.41
2017-04-15T09:26:35.122Z,92.84
2017-04-15T09:27:44.003Z,87.51
2017-04-15T09:28:53.216Z,85.99
2017-04-15T09:30:02.763Z,87.03
2017-04-15T09:31:12.184Z,86.46
2017-04-15T09:32:21.414Z,88.46
2017-04-15T09:33:30.306Z,87.32
2017-04-15T09:34:40.105Z,88.84
2017-04-15T09:35:49.643Z,88.18
2017-04-15T09:36:59.027Z,88.56
2017-04-15T09:38:08.588Z,87.7
2017-04-15T09:39:17.904Z,86.75
2017-04-15T09:40:27.225Z,86.6
2017-04-15T09:41:36.237Z,82.69
2017-04-15T09:42:45.372Z,83.45
2017-04-15T09:43:54.588Z,82.6
2017-04-15T09:45:03.805Z,81.74
2017-04-15T09:46:12.692Z,77.64
2017-04-15T09:47:21.589Z,78.03
2017-04-15T09:48:30.631Z,77.55
2017-04-15T09:49:39.519Z,76.82
2017-04-15T09:50:48.432Z,75.4
2017-04-15T09:51:57.969Z,76.25
2017-04-15T09:53:06.852Z,76.25
2017-04-15T09:54:16.539Z,76.12
2017-04-15T09:55:25.430Z,76.69
2017-04-15T09:56:34.972Z,75.74
2017-04-15T09:57:44.184Z,76.59
2017-04-15T09:58:54.378Z,74.98
2017-04-15T10:00:03.921Z,77.83
2017-04-15T10:01:12.804Z,79.36
2017-04-15T10:02:22.014Z,78.12
2017-04-15T10:03:31.548Z,78.44
2017-04-15T10:04:41.090Z,79.4
2017-04-15T10:05:50.282Z,78.06
2017-04-15T10:06:59.815Z,77.78
2017-04-15T10:08:10.004Z,78.54
2017-04-15T10:09:19.215Z,77.45
2017-04-15T10:10:28.451Z,77.55
2017-04-15T10:11:37.489Z,77.17
2017-04-15T10:12:46.376Z,78.59
2017-04-15T10:13:55.916Z,78.88
2017-04-15T10:15:05.129Z,78.98
2017-04-15T10:16:14.015Z,79.68
2017-04-15T10:17:23.577Z,79.49
2017-04-15T10:18:33.110Z,79.59
2017-04-15T10:19:42.972Z,75.59
2017-04-15T10:20:51.858Z,76.86
2017-04-15T10:22:00.744Z,74.54
2017-04-15T10:23:10.332Z,73.72
2017-04-15T10:24:19.881Z,73.05
2017-04-15T10:25:29.423Z,71.14
2017-04-15T10:26:38.963Z,75.68
2017-04-15T10:27:47.854Z,73.39
2017-04-15T10:28:57.391Z,81.02
2017-04-15T10:30:06.926Z,90.31
2017-04-15T10:31:16.144Z,96.75
2017-04-15T10:32:25.030Z,99.99
2017-04-15T10:33:33.915Z,99.99
2017-04-15T10:34:43.829Z,99.99
2017-04-15T10:35:53.517Z,99.99
2017-04-15T10:37:02.726Z,99.99
2017-04-15T10:38:11.727Z,99.99
2017-04-15T10:39:21.075Z,99.99
2017-04-15T10:40:31.237Z,99.84
2017-04-15T10:41:40.160Z,99.99
2017-04-15T10:42:49.113Z,98.97
2017-04-15T10:43:58.667Z,99.99
2017-04-15T10:45:07.779Z,99.99
2017-04-15T10:46:16.814Z,99.99
2017-04-15T10:47:26.176Z,99.99
2017-04-15T10:48:35.161Z,99.99
2017-04-15T10:49:44.718Z,99.99
2017-04-15T10:50:54.581Z,99.99
2017-04-15T10:52:03.992Z,98.88
2017-04-15T10:53:13.210Z,99.88
2017-04-15T10:54:22.104Z,97.5
2017-04-15T10:55:31.316Z,96.65
2017-04-15T10:56:40.201Z,95.89
2017-04-15T10:57:49.817Z,96.65
2017-04-15T10:58:59.366Z,98.36
2017-04-15T11:00:08.905Z,91.8
2017-04-15T11:01:18.440Z,93.98
2017-04-15T11:02:27.333Z,93.51
2017-04-15T11:03:36.424Z,92.99
2017-04-15T11:04:45.961Z,95.08
2017-04-15T11:05:55.177Z,94.89
2017-04-15T11:07:04.712Z,92.6
2017-04-15T11:08:13.603Z,92.51
2017-04-15T11:09:22.967Z,95.89
2017-04-15T11:10:32.182Z,96.84
2017-04-15T11:11:41.068Z,99.99
2017-04-15T11:12:50.285Z,99.99
2017-04-15T11:13:59.834Z,99.99
2017-04-15T11:15:09.479Z,99.99
2017-04-15T11:16:18.377Z,99.99
2017-04-15T11:17:27.606Z,99.99
2017-04-15T11:18:36.817Z,99.99
2017-04-15T11:19:46.354Z,99.99
2017-04-15T11:20:55.987Z,99.99
2017-04-15T11:22:04.875Z,99.99
2017-04-15T11:23:13.762Z,99.99
2017-04-15T11:24:23.302Z,99.99
2017-04-15T11:25:32.836Z,99.99
2017-04-15T11:26:42.945Z,99.16
2017-04-15T11:27:52.160Z,97.74
2017-04-15T11:29:02.019Z,97.27
2017-04-15T11:30:11.593Z,99.16
2017-04-15T11:31:20.476Z,94.56
2017-04-15T11:32:29.515Z,95.03
2017-04-15T11:33:39.051Z,99.88
2017-04-15T11:34:48.909Z,96.84
2017-04-15T11:35:58.122Z,93.98
2017-04-15T11:37:07.008Z,95.32
2017-04-15T11:38:16.702Z,92.94
2017-04-15T11:39:26.243Z,93.13
2017-04-15T11:40:35.138Z,92.94
2017-04-15T11:41:44.670Z,93.55
2017-04-15T11:42:53.563Z,91.94
2017-04-15T11:44:02.602Z,89.56
2017-04-15T11:45:11.816Z,90.89
2017-04-15T11:46:20.702Z,92.13
2017-04-15T11:47:29.587Z,90.7
2017-04-15T11:48:38.810Z,93.08
2017-04-15T11:49:49.247Z,90.89
2017-04-15T11:50:58.483Z,91.22
2017-04-15T11:52:07.693Z,87.98
2017-04-15T11:53:16.917Z,83.41
2017-04-15T11:54:26.125Z,81.13
2017-04-15T11:55:35.064Z,81.13
2017-04-15T11:56:44.040Z,81.03
2017-04-15T11:57:53.252Z,78.56
2017-04-15T11:59:02.788Z,79.7
2017-04-15T12:00:12.256Z,79.89
2017-04-15T12:01:21.144Z,81.41
2017-04-15T12:02:30.190Z,77.8
2017-04-15T12:03:39.401Z,78.31
2017-04-15T12:04:49.602Z,76.5
2017-04-15T12:05:59.053Z,76.69
2017-04-15T12:07:08.564Z,78.03
2017-04-15T12:08:17.809Z,78.59
2017-04-15T12:09:27.021Z,77.17
2017-04-15T12:10:36.231Z,74.4
2017-04-15T12:11:45.118Z,73.45
2017-04-15T12:12:54.183Z,76.59
2017-04-15T12:14:03.080Z,72.97
2017-04-15T12:15:12.298Z,75.07
2017-04-15T12:16:21.515Z,72.21
2017-04-15T12:17:30.782Z,77.2
2017-04-15T12:18:40.150Z,78.73
2017-04-15T12:19:50.029Z,77.78
2017-04-15T12:20:58.926Z,78.92
2017-04-15T12:22:08.139Z,82.83
2017-04-15T12:23:17.360Z,83.88
2017-04-15T12:24:26.301Z,85.17
2017-04-15T12:25:35.193Z,81.93
2017-04-15T12:26:44.082Z,87.17
2017-04-15T12:27:53.296Z,85.84
2017-04-15T12:29:02.837Z,85.12
2017-04-15T12:30:12.210Z,88.36
2017-04-15T12:31:21.748Z,84.64
2017-04-15T12:32:31.611Z,91.69
2017-04-15T12:33:40.824Z,86.36
2017-04-15T12:34:50.374Z,83.92
2017-04-15T12:35:59.642Z,83.54
2017-04-15T12:37:09.189Z,84.49
2017-04-15T12:38:18.412Z,87.74
2017-04-15T12:39:27.965Z,78.96
2017-04-15T12:40:37.833Z,72.51
2017-04-15T12:41:46.932Z,76.65
2017-04-15T12:42:56.148Z,75.95
2017-04-15T12:44:05.690Z,76.81
2017-04-15T12:45:15.237Z,78.23
2017-04-15T12:46:24.458Z,76.04
2017-04-15T12:47:33.450Z,80.53
2017-04-15T12:48:42.350Z,75.57
2017-04-15T12:49:51.566Z,72.48
2017-04-15T12:51:01.130Z,70.86
2017-04-15T12:52:10.345Z,74.57
2017-04-15T12:53:19.712Z,72.09
2017-04-15T12:54:28.926Z,71.87
2017-04-15T12:55:38.468Z,71.91
2017-04-15T12:56:47.362Z,68.57
2017-04-15T12:57:56.592Z,65.89
2017-04-15T12:59:06.298Z,67.52
2017-04-15T13:00:15.845Z,70.47
2017-04-15T13:01:25.061Z,72.19
2017-04-15T13:02:34.602Z,66.12
2017-04-15T13:03:43.823Z,65.45
2017-04-15T13:04:53.517Z,67.27
2017-04-15T13:06:03.712Z,70.51
2017-04-15T13:07:13.262Z,67.68
2017-04-15T13:08:22.481Z,65.2
2017-04-15T13:09:31.379Z,66.25
2017-04-15T13:10:41.339Z,66.35
2017-04-15T13:11:50.484Z,65.48
2017-04-15T13:12:59.794Z,64.72
2017-04-15T13:14:09.084Z,63.96
2017-04-15T13:15:19.024Z,64.34
2017-04-15T13:16:28.876Z,62.52
2017-04-15T13:17:38.163Z,65.67
2017-04-15T13:18:47.706Z,62.43
2017-04-15T13:19:56.598Z,61.95
2017-04-15T13:21:05.817Z,62.71
2017-04-15T13:22:15.082Z,62.05
2017-04-15T13:23:24.297Z,62.88
2017-04-15T13:24:33.204Z,63.83
2017-04-15T13:25:42.420Z,62.11
2017-04-15T13:26:51.635Z,65.45
2017-04-15T13:28:00.826Z,66.47
2017-04-15T13:29:09.715Z,66.47
2017-04-15T13:30:18.932Z,62.68
2017-04-15T13:31:28.145Z,68.51
2017-04-15T13:32:37.035Z,66.31
2017-04-15T13:33:46.303Z,65.45
2017-04-15T13:34:56.827Z,63.07
2017-04-15T13:36:06.698Z,65.93
2017-04-15T13:37:15.586Z,66.41
2017-04-15T13:38:25.134Z,62.88
2017-04-15T13:39:34.277Z,60.68
2017-04-15T13:40:43.164Z,61.92
2017-04-15T13:41:52.061Z,56.1
2017-04-15T13:43:01.273Z,55.82
2017-04-15T13:44:10.497Z,58.01
2017-04-15T13:45:20.018Z,58.48
2017-04-15T13:46:28.909Z,57.24
2017-04-15T13:47:38.128Z,56.1
2017-04-15T13:48:47.675Z,54.77
2017-04-15T13:49:56.898Z,58.2
2017-04-15T13:51:06.216Z,56.96
2017-04-15T13:52:15.105Z,56.58
2017-04-15T13:53:23.993Z,56.67
2017-04-15T13:54:33.227Z,58.58
2017-04-15T13:55:42.780Z,60.49
2017-04-15T13:56:52.146Z,58.87
2017-04-15T13:58:01.037Z,60.39
2017-04-15T13:59:10.593Z,61.07
2017-04-15T14:00:20.139Z,62.46
2017-04-15T14:01:29.353Z,62.78
2017-04-15T14:02:38.621Z,62.94
2017-04-15T14:03:48.494Z,64.18
2017-04-15T14:04:58.034Z,64.4
2017-04-15T14:06:07.271Z,66.98
2017-04-15T14:07:16.172Z,65.83
2017-04-15T14:08:25.765Z,64.78
2017-04-15T14:09:34.982Z,64.4
2017-04-15T14:10:44.852Z,65.07
2017-04-15T14:11:53.745Z,62.21
2017-04-15T14:13:02.635Z,63.45
2017-04-15T14:14:11.675Z,63.54
2017-04-15T14:15:21.542Z,61.54
2017-04-15T14:16:30.544Z,60.49
2017-04-15T14:17:39.588Z,61.07
2017-04-15T14:18:49.457Z,59.06
2017-04-15T14:19:58.827Z,57.34
2017-04-15T14:21:08.515Z,59.92
2017-04-15T14:22:17.748Z,54.77
2017-04-15T14:23:27.053Z,56.7
2017-04-15T14:24:36.414Z,58.04
2017-04-15T14:25:45.508Z,54.79
2017-04-15T14:26:54.400Z,56.41
2017-04-15T14:28:03.293Z,57.15
2017-04-15T14:29:12.834Z,55.55
2017-04-15T14:30:22.051Z,58.29
2017-04-15T14:31:31.317Z,58.11
2017-04-15T14:32:40.220Z,56.38
2017-04-15T14:33:49.114Z,56.48
2017-04-15T14:34:58.009Z,56.38
2017-04-15T14:36:06.903Z,54.6
2017-04-15T14:37:16.176Z,56.13
2017-04-15T14:38:25.084Z,56.41
2017-04-15T14:39:34.303Z,55.46
2017-04-15T14:40:43.201Z,52.88
2017-04-15T14:41:52.093Z,55.75
2017-04-15T14:43:01.035Z,53.55
2017-04-15T14:44:09.927Z,54.13
2017-04-15T14:45:18.823Z,53.27
2017-04-15T14:46:28.044Z,57.15
2017-04-15T14:47:37.260Z,56.77
2017-04-15T14:48:46.160Z,55.82
2017-04-15T14:49:55.704Z,55.72
2017-04-15T14:51:04.917Z,55.91
2017-04-15T14:52:13.809Z,57.15
2017-04-15T14:53:23.030Z,56.96